Time;durP1;ratioP1;P1;durP2;ratioP2;P2;SDS_P1;SDS_P2;PMS_P1;PMS_P2;Temp;Humidity;BMP_temperature;BMP_pressure;BME280_temperature;BME280_humidity;BME280_pressure;Samples;Min_cycle;Max_cycle;Signal;HPM_P1;HPM_P2
2021/07/29 00:02:09;;;;;;;7.05;4.60;;;;;;;19.44;100.00;100256.92;1715182;83;21091;-88
2021/07/29 00:04:36;;;;;;;7.30;5.10;;;;;;;19.42;100.00;100255.88;1725459;83;21083;-88
2021/07/29 00:07:03;;;;;;;7.03;4.37;;;;;;;19.41;100.00;100254.81;1715204;83;21510;-88
2021/07/29 00:09:30;;;;;;;5.83;4.53;;;;;;;19.38;100.00;100246.62;1755093;81;21623;-88
2021/07/29 00:11:56;;;;;;;8.85;4.75;;;;;;;19.31;100.00;100252.74;1733157;81;21040;-87
2021/07/29 00:14:25;;;;;;;5.60;3.87;;;;;;;19.26;100.00;100247.42;1733373;82;21040;-87
2021/07/29 00:16:58;;;;;;;6.50;5.05;;;;;;;19.22;100.00;100256.17;1733461;81;21092;-88
2021/07/29 00:19:22;;;;;;;7.92;4.75;;;;;;;19.17;100.00;100256.39;1739888;82;21014;-88
2021/07/29 00:21:51;;;;;;;9.48;4.58;;;;;;;19.16;100.00;100254.76;1749647;80;21104;-87
2021/07/29 00:24:18;;;;;;;6.37;4.42;;;;;;;19.15;100.00;100253.16;1724599;81;21052;-88
2021/07/29 00:26:44;;;;;;;6.58;4.60;;;;;;;19.13;100.00;100248.52;1751121;80;21052;-88
2021/07/29 00:29:12;;;;;;;10.13;5.22;;;;;;;19.13;100.00;100253.48;1741183;81;21060;-87
2021/07/29 00:31:38;;;;;;;8.23;5.60;;;;;;;19.12;100.00;100251.08;1730804;81;21120;-88
2021/07/29 00:34:05;;;;;;;9.23;5.67;;;;;;;19.11;100.00;100250.82;1731230;82;21108;-87
2021/07/29 00:36:32;;;;;;;10.43;5.22;;;;;;;19.10;100.00;100250.02;1730536;81;21048;-88
2021/07/29 00:38:59;;;;;;;6.58;4.75;;;;;;;19.08;100.00;100243.20;1737132;82;22130;-88
2021/07/29 00:41:26;;;;;;;10.43;4.97;;;;;;;19.05;100.00;100245.28;1716345;82;21092;-87
2021/07/29 00:44:03;;;;;;;9.00;5.50;;;;;;;19.04;100.00;100246.41;1744230;82;21112;-88
2021/07/29 00:46:33;;;;;;;9.53;5.80;;;;;;;19.05;100.00;100245.28;1722908;82;21043;-88
2021/07/29 00:49:01;;;;;;;8.10;5.28;;;;;;;19.05;100.00;100235.59;1742263;81;21052;-88
2021/07/29 00:51:28;;;;;;;7.70;4.97;;;;;;;19.06;100.00;100235.81;1740616;81;21142;-88
2021/07/29 00:53:57;;;;;;;8.50;5.58;;;;;;;19.04;100.00;100231.19;1750044;81;21587;-88
2021/07/29 00:56:23;;;;;;;8.73;5.42;;;;;;;19.04;100.00;100238.11;1748968;82;21017;-88
2021/07/29 00:58:51;;;;;;;9.65;5.87;;;;;;;19.01;100.00;100234.06;1722532;80;21439;-87
2021/07/29 01:01:18;;;;;;;8.78;6.25;;;;;;;18.99;100.00;100236.94;1725680;82;21026;-89
2021/07/29 01:03:44;;;;;;;9.85;5.25;;;;;;;18.98;100.00;100236.14;1757400;81;21076;-87
2021/07/29 01:06:12;;;;;;;9.50;4.95;;;;;;;18.98;100.00;100240.87;1757175;81;20991;-89
2021/07/29 01:09:00;;;;;;;8.05;5.10;;;;;;;18.91;100.00;100241.41;1756695;81;21028;-88
2021/07/29 01:11:28;;;;;;;10.10;5.05;;;;;;;18.85;100.00;100242.21;1727508;81;21494;-88
2021/07/29 01:13:56;;;;;;;9.10;5.08;;;;;;;18.81;100.00;100232.95;1732469;82;21474;-86
2021/07/29 01:16:22;;;;;;;7.50;4.97;;;;;;;18.80;100.00;100231.93;1732412;81;21079;-87
2021/07/29 01:18:50;;;;;;;9.75;5.17;;;;;;;18.79;100.00;100239.44;1742538;81;21040;-89
2021/07/29 01:21:16;;;;;;;8.30;6.05;;;;;;;18.76;100.00;100231.78;1732160;81;21080;-88
2021/07/29 01:23:44;;;;;;;8.60;5.37;;;;;;;18.74;100.00;100235.43;1730965;82;21043;-87
2021/07/29 01:26:11;;;;;;;10.65;6.85;;;;;;;18.74;100.00;100230.48;1730802;82;21087;-88
2021/07/29 01:28:40;;;;;;;9.83;6.65;;;;;;;18.72;100.00;100232.22;1745683;81;21013;-87
2021/07/29 01:31:06;;;;;;;9.98;6.45;;;;;;;18.72;100.00;100228.06;1732556;81;21038;-87
2021/07/29 01:33:33;;;;;;;11.10;6.78;;;;;;;18.69;100.00;100230.94;1732532;82;21514;-87
2021/07/29 01:36:00;;;;;;;10.30;7.15;;;;;;;18.68;100.00;100235.42;1705743;80;21200;-87
2021/07/29 01:38:27;;;;;;;10.78;6.62;;;;;;;18.68;100.00;100235.42;1745603;82;21010;-87
2021/07/29 01:40:53;;;;;;;11.18;7.12;;;;;;;18.67;100.00;100229.08;1748534;80;21025;-88
2021/07/29 01:43:20;;;;;;;10.80;7.00;;;;;;;18.65;100.00;100235.52;1750616;82;21042;-87
2021/07/29 01:45:46;;;;;;;8.20;5.70;;;;;;;18.62;100.00;100231.22;1757881;79;21022;-87
2021/07/29 01:48:13;;;;;;;8.03;5.70;;;;;;;18.56;100.00;100224.30;1780833;80;21033;-87
2021/07/29 01:50:40;;;;;;;8.25;5.97;;;;;;;18.53;100.00;100231.89;1749838;80;21077;-87
2021/07/29 01:53:06;;;;;;;6.72;5.15;;;;;;;18.51;100.00;100232.80;1750052;82;21536;-87
2021/07/29 01:55:33;;;;;;;11.68;6.05;;;;;;;18.51;100.00;100231.42;1764083;80;21056;-88
2021/07/29 01:57:59;;;;;;;8.68;5.35;;;;;;;18.50;100.00;100233.38;1780451;79;21045;-88
2021/07/29 02:00:26;;;;;;;7.28;5.08;;;;;;;18.51;100.00;100235.56;1753496;80;21201;-87
2021/07/29 02:02:53;;;;;;;8.88;5.15;;;;;;;18.50;100.00;100239.49;1749403;80;21069;-88
2021/07/29 02:05:19;;;;;;;8.48;6.17;;;;;;;18.48;100.00;100232.33;1738670;81;21100;-87
2021/07/29 02:07:46;;;;;;;8.83;5.70;;;;;;;18.48;100.00;100234.29;1736738;82;21104;-87
2021/07/29 02:10:12;;;;;;;9.60;5.97;;;;;;;18.46;100.00;100225.52;1744726;82;21026;-87
2021/07/29 02:12:39;;;;;;;7.22;5.42;;;;;;;18.46;100.00;100228.28;1747703;80;21571;-88
2021/07/29 02:19:04;;;;;;;13.62;6.10;;;;;;;18.48;100.00;100237.86;1848718;77;22764;-87
2021/07/29 02:21:31;;;;;;;9.68;6.35;;;;;;;18.43;100.00;100242.21;1789688;78;21034;-87
2021/07/29 02:23:57;;;;;;;9.40;6.60;;;;;;;18.44;100.00;100241.05;1815253;77;21076;-87
2021/07/29 02:26:24;;;;;;;10.08;6.42;;;;;;;18.47;100.00;100235.42;1817681;78;21014;-87
2021/07/29 02:28:51;;;;;;;11.10;7.53;;;;;;;18.47;100.00;100235.42;1816928;78;21563;-86
2021/07/29 02:31:17;;;;;;;10.25;6.42;;;;;;;18.48;100.00;100243.39;1788809;78;21006;-89
2021/07/29 02:33:44;;;;;;;11.10;6.53;;;;;;;18.50;100.00;100239.49;1788119;77;21060;-87
2021/07/29 02:36:14;;;;;;;12.10;6.62;;;;;;;18.51;100.00;100247.44;1712652;82;21473;-87
2021/07/29 02:38:41;;;;;;;8.33;5.53;;;;;;;18.52;100.00;100246.31;1733120;82;21054;-89
2021/07/29 02:41:08;;;;;;;8.35;6.72;;;;;;;18.51;100.00;100246.63;1762295;78;21106;-87
2021/07/29 02:43:34;;;;;;;10.03;6.08;;;;;;;18.54;100.00;100255.64;1754296;81;22020;-88
2021/07/29 02:46:01;;;;;;;10.93;5.70;;;;;;;18.56;100.00;100250.58;1754481;81;21145;-88
2021/07/29 02:48:28;;;;;;;10.43;6.20;;;;;;;18.57;100.00;100255.78;1754345;81;21093;-88
2021/07/29 02:50:56;;;;;;;8.15;5.83;;;;;;;18.61;100.00;100251.75;1763638;78;21591;-88
2021/07/29 02:53:24;;;;;;;11.28;5.78;;;;;;;18.60;100.00;100239.88;1777958;80;21512;-88
2021/07/29 02:55:53;;;;;;;9.93;5.22;;;;;;;18.60;100.00;100246.00;1779392;80;21072;-88
2021/07/29 02:58:20;;;;;;;10.23;5.92;;;;;;;18.62;100.00;100250.05;1775957;80;21294;-88
2021/07/29 03:00:47;;;;;;;10.00;6.05;;;;;;;18.67;100.00;100246.27;1736080;80;21270;-88
2021/07/29 03:03:13;;;;;;;8.25;5.65;;;;;;;18.73;100.00;100237.98;1738415;82;21038;-88
2021/07/29 03:05:40;;;;;;;9.13;6.10;;;;;;;18.78;100.00;100247.48;1738844;82;21456;-88
2021/07/29 03:08:06;;;;;;;10.78;6.58;;;;;;;18.82;100.00;100241.52;1737407;82;21066;-88
2021/07/29 03:10:35;;;;;;;11.80;5.62;;;;;;;18.86;100.00;100236.09;1773331;79;21823;-88
2021/07/29 03:13:04;;;;;;;7.95;5.80;;;;;;;18.91;100.00;100244.19;1785350;80;21047;-88
2021/07/29 03:15:31;;;;;;;9.10;6.45;;;;;;;18.98;100.00;100246.41;1785269;80;21027;-88
2021/07/29 03:17:58;;;;;;;9.95;5.90;;;;;;;19.04;100.00;100241.70;1788934;80;21030;-89
2021/07/29 03:20:24;;;;;;;10.75;7.08;;;;;;;19.10;100.00;100229.83;1810117;79;21025;-88
2021/07/29 03:22:51;;;;;;;10.98;6.47;;;;;;;19.18;100.00;100229.50;1756792;80;21029;-89
2021/07/29 03:25:17;;;;;;;10.23;6.40;;;;;;;19.28;100.00;100234.59;1793784;80;21030;-89
2021/07/29 03:27:44;;;;;;;9.18;6.28;;;;;;;19.38;100.00;100236.12;1793273;80;21006;-88
2021/07/29 03:30:11;;;;;;;12.25;6.10;;;;;;;19.48;100.00;100231.51;1790381;80;21065;-88
2021/07/29 03:32:38;;;;;;;10.98;7.10;;;;;;;19.57;100.00;100228.64;1793077;80;21086;-89
2021/07/29 03:35:05;;;;;;;9.23;6.03;;;;;;;19.66;100.00;100234.89;1793593;80;21128;-87
2021/07/29 03:37:32;;;;;;;14.90;7.20;;;;;;;19.76;100.00;100224.76;1775773;80;21002;-88
2021/07/29 03:40:06;;;;;;;12.37;6.75;;;;;;;19.88;100.00;100221.15;1757060;81;21285;-89
2021/07/29 03:42:34;;;;;;;10.55;6.65;;;;;;;20.00;100.00;100225.88;1758884;81;21018;-88
2021/07/29 03:45:01;;;;;;;8.80;6.72;;;;;;;20.13;100.00;100224.14;1757397;81;21080;-88
2021/07/29 03:47:28;;;;;;;10.45;7.55;;;;;;;20.25;100.00;100218.33;1770274;80;21001;-88
2021/07/29 03:49:55;;;;;;;9.78;6.12;;;;;;;20.37;100.00;100219.69;1793153;79;21037;-89
2021/07/29 03:52:22;;;;;;;10.48;6.87;;;;;;;20.49;100.00;100213.30;1793922;79;21057;-88
2021/07/29 03:54:50;;;;;;;12.45;7.53;;;;;;;20.65;100.00;100213.37;1793400;80;21046;-88
2021/07/29 03:57:18;;;;;;;11.15;7.22;;;;;;;20.80;100.00;100204.30;1775295;79;21532;-88
2021/07/29 03:59:46;;;;;;;11.95;7.75;;;;;;;20.92;100.00;100212.58;1743216;81;21090;-88
2021/07/29 04:02:12;;;;;;;12.75;7.42;;;;;;;21.02;100.00;100209.28;1760537;80;21094;-88
2021/07/29 04:04:40;;;;;;;8.65;6.15;;;;;;;21.12;100.00;100203.78;1747494;80;21061;-89
2021/07/29 04:07:07;;;;;;;10.98;6.83;;;;;;;21.25;100.00;100198.36;1744691;81;21504;-88
2021/07/29 04:09:36;;;;;;;8.90;6.15;;;;;;;21.41;100.00;100202.58;1769336;80;21116;-88
2021/07/29 04:12:04;;;;;;;13.98;8.40;;;;;;;21.57;100.00;100190.64;1756607;81;21012;-89
2021/07/29 04:14:31;;;;;;;13.50;8.28;;;;;;;21.71;100.00;100188.20;1756557;81;21496;-89
2021/07/29 04:16:58;;;;;;;13.80;7.72;;;;;;;21.83;100.00;100185.87;1781337;80;21069;-88
2021/07/29 04:19:24;;;;;;;11.30;6.78;;;;;;;21.96;100.00;100192.13;1764996;79;21022;-88
2021/07/29 04:21:52;;;;;;;13.88;8.55;;;;;;;22.09;100.00;100189.46;1754370;81;21483;-88
2021/07/29 04:24:19;;;;;;;12.45;8.13;;;;;;;22.25;100.00;100191.62;1765953;80;21019;-89
2021/07/29 04:26:45;;;;;;;15.38;7.55;;;;;;;22.40;100.00;100191.92;1727950;81;21029;-89
2021/07/29 04:29:12;;;;;;;14.73;8.45;;;;;;;22.52;100.00;100198.15;1741381;81;21008;-88
2021/07/29 04:31:39;;;;;;;14.00;7.92;;;;;;;22.64;100.00;100195.81;1748443;81;21038;-89
2021/07/29 04:34:06;;;;;;;14.23;8.53;;;;;;;22.76;100.00;100191.48;1748638;81;21601;-89
2021/07/29 04:36:40;;;;;;;14.05;7.75;;;;;;;22.91;100.00;100191.75;1764630;81;21031;-88
2021/07/29 04:39:09;;;;;;;11.90;8.15;;;;;;;23.04;100.00;100198.78;1752641;80;21017;-88
2021/07/29 04:41:40;;;;;;;10.65;7.25;;;;;;;23.20;100.00;100198.69;1750110;80;21059;-89
2021/07/29 04:44:08;;;;;;;16.32;8.15;;;;;;;23.35;100.00;100192.18;1731896;81;21026;-89
2021/07/29 04:46:38;;;;;;;12.07;7.75;;;;;;;23.50;100.00;100190.44;1728562;82;21327;-88
2021/07/29 04:49:07;;;;;;;11.90;7.75;;;;;;;23.67;100.00;100193.90;1740603;82;21065;-88
2021/07/29 04:51:36;;;;;;;12.13;7.42;;;;;;;23.83;100.00;100197.34;1714312;82;21592;-89
2021/07/29 04:54:03;;;;;;;14.78;7.78;;;;;;;23.97;100.00;100197.56;1731603;81;21072;-88
2021/07/29 04:56:31;;;;;;;11.75;6.83;;;;;;;24.11;100.00;100191.96;1774477;80;21030;-88
2021/07/29 04:58:59;;;;;;;15.13;7.65;;;;;;;24.23;100.00;100193.95;1727749;81;21034;-89
2021/07/29 05:01:26;;;;;;;10.45;7.50;;;;;;;24.33;100.00;100192.48;1750900;81;21064;-88
2021/07/29 05:03:53;;;;;;;12.75;7.83;;;;;;;24.45;100.00;100194.21;1742323;81;21034;-89
2021/07/29 05:06:19;;;;;;;14.05;7.75;;;;;;;24.58;100.00;100197.02;1764625;81;21033;-89
2021/07/29 05:08:58;;;;;;;14.23;7.42;;;;;;;24.72;100.00;100185.19;1780685;80;21654;-89
2021/07/29 05:11:26;;;;;;;12.30;7.97;;;;;;;24.81;100.00;100184.30;1782895;80;21080;-88
2021/07/29 05:13:53;;;;;;;13.93;8.05;;;;;;;24.97;100.00;100181.86;1763374;81;21050;-88
2021/07/29 05:16:21;;;;;;;12.05;7.47;;;;;;;25.05;100.00;100185.75;1782828;80;21469;-88
2021/07/29 05:18:48;;;;;;;12.95;7.33;;;;;;;25.18;100.00;100178.52;1743681;80;21020;-88
2021/07/29 05:21:15;;;;;;;11.20;6.78;;;;;;;25.29;100.00;100178.80;1766402;80;21094;-89
2021/07/29 05:23:41;;;;;;;13.45;7.80;;;;;;;25.42;100.00;100184.92;1758944;79;21544;-87
2021/07/29 05:26:17;;;;;;;9.53;6.53;;;;;;;25.58;100.00;100188.03;1746385;80;21057;-88
2021/07/29 05:28:44;;;;;;;11.93;6.90;;;;;;;25.75;100.00;100174.77;1763239;80;21105;-89
2021/07/29 05:31:11;;;;;;;10.00;6.65;;;;;;;25.95;100.00;100179.52;1749602;81;21460;-87
2021/07/29 05:33:38;;;;;;;13.00;7.20;;;;;;;26.11;100.00;100176.40;1773973;80;21321;-89
2021/07/29 05:36:05;;;;;;;11.40;6.80;;;;;;;26.27;99.71;100174.09;1762636;80;21040;-89
2021/07/29 05:38:33;;;;;;;11.18;6.70;;;;;;;26.43;98.21;100177.95;1776030;80;21356;-87
2021/07/29 05:41:07;;;;;;;10.58;6.42;;;;;;;26.57;97.65;100175.84;1764522;80;21162;-89
2021/07/29 05:43:40;;;;;;;9.25;5.67;;;;;;;26.75;97.12;100182.89;1774805;80;20967;-89
2021/07/29 05:46:09;;;;;;;11.35;6.92;;;;;;;26.87;95.24;100181.12;1762744;80;21502;-89
2021/07/29 05:48:37;;;;;;;10.48;6.72;;;;;;;26.94;94.01;100187.36;1774587;80;21513;-87
2021/07/29 05:51:04;;;;;;;10.75;7.33;;;;;;;27.01;94.15;100176.16;1762400;80;20989;-88
2021/07/29 05:53:31;;;;;;;12.00;7.20;;;;;;;27.14;94.13;100179.37;1774470;80;20991;-89
2021/07/29 05:55:57;;;;;;;12.53;7.58;;;;;;;27.20;92.23;100180.59;1762591;80;21698;-89
2021/07/29 05:58:24;;;;;;;11.28;7.60;;;;;;;27.27;90.98;100174.20;1774717;80;21465;-88
2021/07/29 06:00:50;;;;;;;12.45;8.05;;;;;;;27.36;91.24;100183.83;1763437;80;21044;-87
2021/07/29 06:03:16;;;;;;;10.50;7.03;;;;;;;27.47;90.58;100183.02;1774597;80;21039;-88
2021/07/29 06:05:43;;;;;;;12.80;7.92;;;;;;;27.58;90.59;100183.83;1763280;80;21105;-89
2021/07/29 06:08:10;;;;;;;11.88;7.78;;;;;;;27.66;89.82;100177.00;1774682;80;21685;-87
2021/07/29 06:10:37;;;;;;;10.88;7.12;;;;;;;27.74;89.29;100183.41;1762707;81;21436;-87
2021/07/29 06:13:03;;;;;;;11.00;6.17;;;;;;;27.84;89.52;100177.82;1774410;80;21050;-90
2021/07/29 06:15:30;;;;;;;10.95;6.87;;;;;;;28.00;89.29;100180.18;1763057;81;21040;-89
2021/07/29 06:18:00;;;;;;;11.90;7.35;;;;;;;28.14;87.48;100175.72;1752347;80;21058;-89
2021/07/29 06:20:27;;;;;;;10.88;7.22;;;;;;;28.26;87.21;100180.31;1762700;81;21079;-87
2021/07/29 06:22:54;;;;;;;8.93;6.28;;;;;;;28.36;85.72;100173.63;1751041;80;21038;-87
2021/07/29 06:25:22;;;;;;;12.13;7.30;;;;;;;28.45;86.39;100179.66;1762656;81;21413;-87
2021/07/29 06:27:49;;;;;;;9.48;6.35;;;;;;;28.54;84.13;100171.59;1774590;80;21069;-87
2021/07/29 06:30:16;;;;;;;10.90;5.92;;;;;;;28.61;84.25;100168.75;1764343;81;22298;-90
2021/07/29 06:32:43;;;;;;;10.03;6.37;;;;;;;28.71;85.24;100162.27;1774426;80;21041;-89
2021/07/29 06:35:10;;;;;;;8.53;5.42;;;;;;;28.91;84.79;100163.16;1739062;81;21027;-90
2021/07/29 06:37:38;;;;;;;9.43;5.97;;;;;;;29.04;83.38;100160.04;1774355;80;21037;-87
2021/07/29 06:40:06;;;;;;;9.65;6.00;;;;;;;29.20;81.91;100153.11;1762696;81;21087;-89
2021/07/29 06:42:33;;;;;;;7.97;6.15;;;;;;;29.33;82.13;100148.61;1775026;80;21069;-87
2021/07/29 06:44:59;;;;;;;10.78;6.25;;;;;;;29.43;80.08;100148.32;1762762;81;21029;-90
2021/07/29 06:47:27;;;;;;;12.65;6.92;;;;;;;29.51;81.17;100145.63;1774449;80;21014;-88
2021/07/29 06:49:54;;;;;;;10.50;6.53;;;;;;;29.62;81.22;100141.29;1762871;81;21035;-90
2021/07/29 06:52:20;;;;;;;9.55;6.28;;;;;;;29.79;80.84;100141.75;1774541;80;21045;-91
2021/07/29 06:54:47;;;;;;;7.08;5.15;;;;;;;29.92;81.16;100132.97;1762664;81;21065;-87
2021/07/29 06:57:13;;;;;;;11.57;6.72;;;;;;;29.98;81.32;100135.50;1774617;80;21545;-89
2021/07/29 06:59:40;;;;;;;9.55;5.97;;;;;;;30.03;81.26;100130.63;1734515;81;21062;-88
2021/07/29 07:02:06;;;;;;;9.30;6.10;;;;;;;30.06;81.67;100124.94;1742997;81;21063;-88
2021/07/29 07:04:34;;;;;;;10.23;5.87;;;;;;;30.11;81.76;100125.09;1734503;82;21096;-91
2021/07/29 07:07:00;;;;;;;9.88;6.10;;;;;;;30.17;81.64;100125.63;1706424;82;21078;-90
2021/07/29 07:09:30;;;;;;;8.48;5.62;;;;;;;30.26;80.78;100123.72;1735151;81;21018;-88
2021/07/29 07:11:57;;;;;;;8.00;5.78;;;;;;;30.31;80.95;100123.86;1741241;80;21543;-90
2021/07/29 07:14:24;;;;;;;9.13;5.58;;;;;;;30.30;80.88;100120.25;1734029;82;21019;-88
2021/07/29 07:16:51;;;;;;;8.25;5.95;;;;;;;30.35;79.80;100119.78;1746920;82;21041;-89
2021/07/29 07:19:17;;;;;;;6.30;5.00;;;;;;;30.36;80.43;100115.73;1720215;83;21044;-87
2021/07/29 07:21:44;;;;;;;8.80;5.37;;;;;;;30.35;79.54;100121.19;1720630;83;21203;-88
2021/07/29 07:24:10;;;;;;;8.08;5.83;;;;;;;30.34;78.60;100115.37;1753928;81;21051;-90
2021/07/29 07:26:38;;;;;;;9.63;6.37;;;;;;;30.30;78.95;100121.66;1753803;80;21095;-87
2021/07/29 07:29:05;;;;;;;13.53;6.50;;;;;;;30.27;79.47;100126.74;1753839;81;21648;-90
2021/07/29 07:31:33;;;;;;;8.38;5.33;;;;;;;30.31;80.08;100127.47;1753777;80;21493;-89
2021/07/29 07:34:00;;;;;;;8.63;6.20;;;;;;;30.38;79.55;100118.93;1756097;81;21443;-91
2021/07/29 07:36:27;;;;;;;9.08;5.65;;;;;;;30.46;78.62;100123.06;1755559;80;21115;-88
2021/07/29 07:38:54;;;;;;;10.15;5.92;;;;;;;30.43;78.66;100121.27;1754172;81;21584;-88
2021/07/29 07:41:21;;;;;;;10.78;5.37;;;;;;;30.42;78.86;100119.69;1753650;80;21070;-88
2021/07/29 07:43:49;;;;;;;8.40;6.12;;;;;;;30.54;78.95;100110.45;1753593;81;21062;-88
2021/07/29 07:46:16;;;;;;;9.03;5.95;;;;;;;30.71;79.91;100112.22;1749210;80;21597;-90
2021/07/29 07:48:43;;;;;;;8.43;6.03;;;;;;;30.90;78.02;100101.50;1753777;81;21023;-88
2021/07/29 07:51:09;;;;;;;8.95;4.72;;;;;;;31.04;77.58;100106.92;1753746;80;21034;-89
2021/07/29 07:53:36;;;;;;;8.20;5.60;;;;;;;31.20;77.06;100109.86;1723627;81;21106;-88
2021/07/29 07:56:04;;;;;;;7.40;5.03;;;;;;;31.41;76.28;100116.41;1753647;80;21122;-88
2021/07/29 07:58:32;;;;;;;6.60;4.62;;;;;;;31.67;70.81;100116.91;1753631;81;22201;-89
2021/07/29 08:01:02;;;;;;;6.83;5.03;;;;;;;31.96;67.06;100116.39;1753464;80;21169;-88
2021/07/29 08:03:30;;;;;;;9.03;5.22;;;;;;;32.17;65.77;100114.35;1754167;81;21059;-89
2021/07/29 08:06:02;;;;;;;7.25;4.60;;;;;;;32.44;64.07;100117.00;1753637;80;21772;-88
2021/07/29 08:08:29;;;;;;;8.18;4.95;;;;;;;32.58;63.08;100118.76;1753978;81;21042;-88
2021/07/29 08:10:55;;;;;;;8.38;4.97;;;;;;;32.73;64.61;100119.39;1753454;80;21035;-89
2021/07/29 08:13:22;;;;;;;9.73;5.78;;;;;;;32.97;63.31;100117.20;1724308;81;21016;-87
2021/07/29 08:15:49;;;;;;;5.95;4.08;;;;;;;33.23;61.45;100120.23;1753641;80;21024;-89
2021/07/29 08:18:17;;;;;;;10.32;5.28;;;;;;;33.16;61.03;100114.16;1753965;81;21534;-89
2021/07/29 08:20:45;;;;;;;6.45;4.55;;;;;;;33.12;60.56;100112.02;1753541;80;21031;-88
2021/07/29 08:23:12;;;;;;;8.00;5.70;;;;;;;32.95;61.36;100112.61;1753859;81;21046;-89
2021/07/29 08:25:39;;;;;;;9.60;5.25;;;;;;;32.91;63.06;100105.44;1753917;81;21461;-89
2021/07/29 08:28:05;;;;;;;6.62;4.40;;;;;;;33.07;62.05;100108.31;1723973;81;21101;-88
2021/07/29 08:30:32;;;;;;;6.00;3.90;;;;;;;33.10;61.74;100110.88;1754590;81;21015;-88
2021/07/29 08:33:08;;;;;;;8.50;3.67;;;;;;;33.06;60.06;100110.98;1753494;80;21015;-88
2021/07/29 08:35:37;;;;;;;7.75;4.58;;;;;;;32.97;61.81;100107.93;1748987;80;21051;-88
2021/07/29 08:38:04;;;;;;;6.53;4.62;;;;;;;33.01;61.58;100107.83;1749714;82;21458;-88
2021/07/29 08:40:33;;;;;;;7.37;4.42;;;;;;;32.88;60.35;100107.11;1756988;81;21067;-89
2021/07/29 08:43:01;;;;;;;6.40;4.00;;;;;;;32.70;60.29;100106.76;1785079;80;21054;-89
2021/07/29 08:45:28;;;;;;;4.42;3.70;;;;;;;32.59;59.86;100113.27;1732439;80;21094;-89
2021/07/29 08:47:55;;;;;;;4.87;4.10;;;;;;;32.53;60.59;100110.96;1787718;80;21093;-88
2021/07/29 08:50:23;;;;;;;4.65;3.77;;;;;;;32.50;59.78;100110.43;1787606;80;21030;-89
2021/07/29 08:52:50;;;;;;;5.78;4.08;;;;;;;32.67;61.76;100110.47;1787278;80;21062;-89
2021/07/29 08:55:17;;;;;;;8.48;4.37;;;;;;;32.83;58.36;100110.47;1750044;80;21015;-88
2021/07/29 08:57:44;;;;;;;7.50;4.17;;;;;;;32.88;59.22;100109.16;1753735;81;21140;-89
2021/07/29 09:00:12;;;;;;;5.28;3.30;;;;;;;33.10;58.23;100097.52;1753818;81;22183;-89
2021/07/29 09:02:40;;;;;;;5.20;3.47;;;;;;;33.33;56.67;100102.80;1756041;80;21086;-88
2021/07/29 09:05:19;;;;;;;6.20;4.03;;;;;;;33.47;55.00;100101.01;1748732;81;21066;-88
2021/07/29 09:08:03;;;;;;;5.20;3.30;;;;;;;33.34;53.63;100100.95;1788164;80;21473;-89
2021/07/29 09:10:30;;;;;;;4.25;3.00;;;;;;;33.22;52.56;100093.17;1755179;81;21603;-89
2021/07/29 09:13:15;;;;;;;6.33;3.15;;;;;;;33.25;52.49;100092.91;1740339;81;21058;-89
2021/07/29 09:15:42;;;;;;;5.80;3.55;;;;;;;33.52;51.71;100088.34;1726675;83;21040;-89
2021/07/29 09:18:09;;;;;;;5.17;3.47;;;;;;;33.85;53.81;100084.81;1727748;82;21025;-89
2021/07/29 09:20:37;;;;;;;5.22;2.75;;;;;;;34.11;52.25;100084.92;1721990;82;21634;-89
2021/07/29 09:23:19;;;;;;;4.53;2.12;;;;;;;34.19;47.34;100079.99;1761808;80;21428;-89
2021/07/29 09:25:49;;;;;;;3.77;2.47;;;;;;;33.92;44.42;100089.48;1756588;81;21051;-89
2021/07/29 09:28:39;;;;;;;3.98;2.60;;;;;;;33.63;45.20;100087.45;1694741;83;21036;-89
2021/07/29 09:31:19;;;;;;;2.77;1.92;;;;;;;33.50;43.29;100083.75;1704193;83;21562;-90
2021/07/29 09:34:01;;;;;;;4.22;2.47;;;;;;;33.38;44.43;100077.59;1757696;81;21072;-88
2021/07/29 09:36:31;;;;;;;4.85;2.58;;;;;;;33.52;46.06;100077.02;1756327;81;21075;-89
2021/07/29 09:39:21;;;;;;;3.95;2.83;;;;;;;33.75;46.96;100081.03;1756841;81;21008;-88
2021/07/29 09:41:50;;;;;;;3.27;2.65;;;;;;;33.91;45.66;100075.95;1779460;80;21060;-89
2021/07/29 09:44:38;;;;;;;4.50;3.05;;;;;;;34.07;45.45;100076.48;1787728;80;21088;-90
2021/07/29 09:47:05;;;;;;;4.35;2.52;;;;;;;34.21;45.94;100071.84;1788597;80;21049;-89
2021/07/29 09:49:31;;;;;;;8.93;3.20;;;;;;;34.48;45.29;100070.63;1780062;80;21004;-88
2021/07/29 09:51:58;;;;;;;5.17;3.22;;;;;;;34.63;44.88;100072.41;1757838;80;21021;-88
2021/07/29 09:54:25;;;;;;;6.55;2.90;;;;;;;34.52;44.74;100065.64;1757592;80;21024;-88
2021/07/29 09:56:52;;;;;;;5.67;3.27;;;;;;;34.32;45.47;100070.71;1757596;80;21066;-89
2021/07/29 09:59:19;;;;;;;3.80;2.75;;;;;;;34.20;44.26;100065.19;1777876;80;21107;-88
2021/07/29 10:01:45;;;;;;;5.67;3.30;;;;;;;33.99;44.73;100070.86;1756568;81;21012;-89
2021/07/29 10:04:12;;;;;;;4.70;3.35;;;;;;;33.89;46.17;100062.05;1755880;81;21009;-88
2021/07/29 10:06:38;;;;;;;3.25;2.65;;;;;;;33.91;45.36;100067.44;1755792;81;21019;-88
2021/07/29 10:09:12;;;;;;;6.20;3.75;;;;;;;33.76;46.62;100069.11;1756505;80;21028;-89
2021/07/29 10:11:42;;;;;;;5.78;2.92;;;;;;;33.75;46.73;100059.00;1756437;81;21153;-88
2021/07/29 10:14:12;;;;;;;7.40;3.47;;;;;;;33.82;46.07;100059.59;1756515;80;21012;-88
2021/07/29 10:16:50;;;;;;;6.60;3.72;;;;;;;33.94;46.69;100062.28;1758772;80;21052;-88
2021/07/29 10:19:17;;;;;;;5.85;3.30;;;;;;;34.00;46.18;100065.35;1783386;80;21021;-88
2021/07/29 10:21:47;;;;;;;5.70;3.25;;;;;;;34.07;46.41;100056.64;1783420;80;21005;-88
2021/07/29 10:24:15;;;;;;;6.33;4.22;;;;;;;34.02;46.60;100057.20;1783578;80;21455;-89
2021/07/29 10:27:06;;;;;;;7.25;3.52;;;;;;;33.95;47.03;100057.41;1778956;80;21067;-89
2021/07/29 10:29:34;;;;;;;4.45;3.10;;;;;;;33.84;46.51;100052.85;1752226;81;21024;-88
2021/07/29 10:32:02;;;;;;;4.80;3.45;;;;;;;33.90;47.31;100049.46;1751654;81;21399;-88
2021/07/29 10:34:32;;;;;;;5.47;3.30;;;;;;;33.87;46.93;100048.95;1752257;81;21163;-88
2021/07/29 10:37:02;;;;;;;4.42;3.12;;;;;;;33.84;46.28;100052.06;1772438;80;21037;-89
2021/07/29 10:39:29;;;;;;;4.00;3.08;;;;;;;33.80;45.77;100045.09;1776733;78;21531;-88
2021/07/29 10:41:57;;;;;;;4.10;2.87;;;;;;;33.78;45.38;100046.16;1764486;80;21017;-88
2021/07/29 10:44:39;;;;;;;6.78;2.72;;;;;;;33.79;45.26;100036.41;1778529;80;21073;-89
2021/07/29 10:47:10;;;;;;;4.42;2.72;;;;;;;33.86;45.29;100031.16;1782809;80;21513;-88
2021/07/29 10:50:00;;;;;;;7.65;3.92;;;;;;;33.96;45.83;100027.84;1777194;79;27220;-91
2021/07/29 10:52:29;;;;;;;5.03;2.93;;;;;;;34.01;45.69;100026.66;1753562;81;21030;-88
2021/07/29 10:54:56;;;;;;;5.67;3.40;;;;;;;34.01;46.18;100022.40;1759935;80;21504;-90
2021/07/29 10:57:23;;;;;;;7.00;3.00;;;;;;;33.95;47.10;100016.31;1764447;80;20981;-90
2021/07/29 10:59:52;;;;;;;3.72;2.22;;;;;;;33.94;47.10;100024.66;1758737;80;21046;-88
2021/07/29 11:02:42;;;;;;;5.72;2.05;;;;;;;34.03;44.91;100024.16;1766342;80;20986;-91
2021/07/29 11:05:09;;;;;;;3.33;2.25;;;;;;;34.26;43.42;100025.91;1783019;80;21496;-90
2021/07/29 11:07:41;;;;;;;1.67;1.47;;;;;;;34.48;38.39;100035.16;1783637;80;21010;-90
2021/07/29 11:10:13;;;;;;;3.80;1.37;;;;;;;34.37;37.10;100033.28;1759409;80;21002;-90
2021/07/29 11:12:39;;;;;;;2.92;1.25;;;;;;;34.18;36.79;100040.14;1733616;81;21013;-91
2021/07/29 11:15:08;;;;;;;1.77;1.30;;;;;;;33.99;36.32;100030.55;1722052;81;21062;-90
2021/07/29 11:17:35;;;;;;;2.65;1.42;;;;;;;33.84;36.79;100031.59;1776803;80;21016;-91
2021/07/29 11:20:01;;;;;;;2.25;1.50;;;;;;;33.70;37.38;100037.67;1751943;80;21081;-90
2021/07/29 11:22:28;;;;;;;1.95;1.50;;;;;;;33.67;37.31;100035.75;1759890;79;21884;-93
2021/07/29 11:25:08;;;;;;;2.60;1.67;;;;;;;33.73;37.79;100024.65;1763247;79;20993;-91
2021/07/29 11:27:50;;;;;;;2.55;1.60;;;;;;;33.80;38.21;100023.84;1754072;81;21089;-90
2021/07/29 11:30:16;;;;;;;2.42;1.60;;;;;;;33.70;38.42;100022.09;1730293;83;21806;-91